sensor_id;sensor_type;location;lat;lon;timestamp;P1;durP1;ratioP1;P2;durP2;ratioP2
77220;SDS011;66217;50.004;8.266;2023-08-31T00:00:43;7.28;;;2.58;;
77220;SDS011;66217;50.004;8.266;2023-08-31T00:03:09;4.43;;;2.72;;
77220;SDS011;66217;50.004;8.266;2023-08-31T00:05:42;7.63;;;3.15;;
77220;SDS011;66217;50.004;8.266;2023-08-31T00:08:07;5.80;;;2.53;;
77220;SDS011;66217;50.004;8.266;2023-08-31T00:10:34;7.22;;;3.00;;
77220;SDS011;66217;50.004;8.266;2023-08-31T00:13:00;6.05;;;2.90;;
77220;SDS011;66217;50.004;8.266;2023-08-31T00:15:29;5.43;;;2.95;;
77220;SDS011;66217;50.004;8.266;2023-08-31T00:17:57;3.50;;;2.55;;
77220;SDS011;66217;50.004;8.266;2023-08-31T00:20:23;4.85;;;2.78;;
77220;SDS011;66217;50.004;8.266;2023-08-31T00:22:48;5.55;;;2.92;;
77220;SDS011;66217;50.004;8.266;2023-08-31T00:25:14;3.40;;;2.47;;
77220;SDS011;66217;50.004;8.266;2023-08-31T00:27:40;8.65;;;2.65;;
77220;SDS011;66217;50.004;8.266;2023-08-31T00:30:06;7.40;;;2.80;;
77220;SDS011;66217;50.004;8.266;2023-08-31T00:32:36;9.73;;;2.78;;
77220;SDS011;66217;50.004;8.266;2023-08-31T00:35:01;4.55;;;2.97;;
77220;SDS011;66217;50.004;8.266;2023-08-31T00:37:29;5.78;;;3.05;;
77220;SDS011;66217;50.004;8.266;2023-08-31T00:39:54;9.35;;;2.90;;
77220;SDS011;66217;50.004;8.266;2023-08-31T00:42:20;10.98;;;3.00;;
77220;SDS011;66217;50.004;8.266;2023-08-31T00:44:46;5.68;;;3.00;;
77220;SDS011;66217;50.004;8.266;2023-08-31T00:47:12;6.63;;;2.72;;
77220;SDS011;66217;50.004;8.266;2023-08-31T00:49:38;8.38;;;3.10;;
77220;SDS011;66217;50.004;8.266;2023-08-31T00:52:04;6.50;;;2.97;;
77220;SDS011;66217;50.004;8.266;2023-08-31T00:54:30;5.95;;;3.40;;
77220;SDS011;66217;50.004;8.266;2023-08-31T00:56:56;6.63;;;3.15;;
77220;SDS011;66217;50.004;8.266;2023-08-31T00:59:22;6.15;;;3.30;;
77220;SDS011;66217;50.004;8.266;2023-08-31T01:12:54;9.07;;;3.80;;
77220;SDS011;66217;50.004;8.266;2023-08-31T01:15:26;9.00;;;3.33;;
77220;SDS011;66217;50.004;8.266;2023-08-31T01:17:56;5.63;;;3.35;;
77220;SDS011;66217;50.004;8.266;2023-08-31T01:21:10;5.75;;;3.38;;
77220;SDS011;66217;50.004;8.266;2023-08-31T01:26:21;5.47;;;3.25;;
77220;SDS011;66217;50.004;8.266;2023-08-31T01:28:49;6.40;;;3.60;;
77220;SDS011;66217;50.004;8.266;2023-08-31T01:31:15;6.50;;;3.90;;
77220;SDS011;66217;50.004;8.266;2023-08-31T01:33:41;5.10;;;3.40;;
77220;SDS011;66217;50.004;8.266;2023-08-31T01:36:29;5.60;;;3.53;;
77220;SDS011;66217;50.004;8.266;2023-08-31T01:39:15;5.00;;;3.22;;
77220;SDS011;66217;50.004;8.266;2023-08-31T01:41:46;6.18;;;3.30;;
77220;SDS011;66217;50.004;8.266;2023-08-31T01:44:15;7.78;;;3.42;;
77220;SDS011;66217;50.004;8.266;2023-08-31T01:46:45;5.20;;;3.00;;
77220;SDS011;66217;50.004;8.266;2023-08-31T01:49:11;5.65;;;3.17;;
77220;SDS011;66217;50.004;8.266;2023-08-31T01:51:36;5.03;;;3.20;;
77220;SDS011;66217;50.004;8.266;2023-08-31T01:54:02;9.75;;;3.50;;
77220;SDS011;66217;50.004;8.266;2023-08-31T01:56:28;7.43;;;3.47;;
77220;SDS011;66217;50.004;8.266;2023-08-31T01:58:54;4.65;;;2.88;;
77220;SDS011;66217;50.004;8.266;2023-08-31T02:01:19;4.80;;;3.03;;
77220;SDS011;66217;50.004;8.266;2023-08-31T02:03:47;6.07;;;3.38;;
77220;SDS011;66217;50.004;8.266;2023-08-31T02:06:12;6.20;;;2.97;;
77220;SDS011;66217;50.004;8.266;2023-08-31T02:08:38;6.32;;;3.00;;
77220;SDS011;66217;50.004;8.266;2023-08-31T02:11:04;5.13;;;2.97;;
77220;SDS011;66217;50.004;8.266;2023-08-31T02:13:29;9.10;;;3.28;;
77220;SDS011;66217;50.004;8.266;2023-08-31T02:15:55;7.63;;;3.20;;
77220;SDS011;66217;50.004;8.266;2023-08-31T02:18:20;7.47;;;3.17;;
77220;SDS011;66217;50.004;8.266;2023-08-31T02:20:46;6.10;;;3.00;;
77220;SDS011;66217;50.004;8.266;2023-08-31T02:23:12;9.38;;;3.45;;
77220;SDS011;66217;50.004;8.266;2023-08-31T02:25:38;9.00;;;3.63;;
77220;SDS011;66217;50.004;8.266;2023-08-31T02:28:03;5.85;;;3.17;;
77220;SDS011;66217;50.004;8.266;2023-08-31T02:30:29;5.78;;;3.30;;
77220;SDS011;66217;50.004;8.266;2023-08-31T02:32:56;6.45;;;3.30;;
77220;SDS011;66217;50.004;8.266;2023-08-31T02:35:21;12.25;;;3.60;;
77220;SDS011;66217;50.004;8.266;2023-08-31T02:37:47;7.63;;;3.22;;
77220;SDS011;66217;50.004;8.266;2023-08-31T02:40:12;7.82;;;3.35;;
77220;SDS011;66217;50.004;8.266;2023-08-31T02:42:38;5.85;;;3.38;;
77220;SDS011;66217;50.004;8.266;2023-08-31T02:45:03;8.82;;;3.53;;
77220;SDS011;66217;50.004;8.266;2023-08-31T02:47:29;9.55;;;4.50;;
77220;SDS011;66217;50.004;8.266;2023-08-31T02:49:55;5.07;;;3.47;;
77220;SDS011;66217;50.004;8.266;2023-08-31T02:52:21;6.53;;;3.75;;
77220;SDS011;66217;50.004;8.266;2023-08-31T02:54:46;8.38;;;3.67;;
77220;SDS011;66217;50.004;8.266;2023-08-31T02:57:12;9.57;;;4.25;;
77220;SDS011;66217;50.004;8.266;2023-08-31T02:59:38;5.53;;;3.83;;
77220;SDS011;66217;50.004;8.266;2023-08-31T03:02:03;8.85;;;4.07;;
77220;SDS011;66217;50.004;8.266;2023-08-31T03:04:29;7.65;;;3.72;;
77220;SDS011;66217;50.004;8.266;2023-08-31T03:06:54;8.85;;;4.00;;
77220;SDS011;66217;50.004;8.266;2023-08-31T03:09:22;11.27;;;4.53;;
77220;SDS011;66217;50.004;8.266;2023-08-31T03:11:47;9.52;;;3.80;;
77220;SDS011;66217;50.004;8.266;2023-08-31T03:14:13;6.35;;;3.70;;
77220;SDS011;66217;50.004;8.266;2023-08-31T03:16:40;6.13;;;3.90;;
77220;SDS011;66217;50.004;8.266;2023-08-31T03:19:05;6.10;;;4.00;;
77220;SDS011;66217;50.004;8.266;2023-08-31T03:21:31;10.02;;;4.13;;
77220;SDS011;66217;50.004;8.266;2023-08-31T03:23:56;6.78;;;3.83;;
77220;SDS011;66217;50.004;8.266;2023-08-31T03:26:22;8.20;;;4.05;;
77220;SDS011;66217;50.004;8.266;2023-08-31T03:28:47;6.57;;;3.95;;
77220;SDS011;66217;50.004;8.266;2023-08-31T03:31:13;8.40;;;3.72;;
77220;SDS011;66217;50.004;8.266;2023-08-31T03:33:40;6.07;;;4.00;;
77220;SDS011;66217;50.004;8.266;2023-08-31T03:36:05;6.32;;;3.50;;
77220;SDS011;66217;50.004;8.266;2023-08-31T03:38:33;6.90;;;3.80;;
77220;SDS011;66217;50.004;8.266;2023-08-31T03:41:03;9.05;;;3.72;;
77220;SDS011;66217;50.004;8.266;2023-08-31T03:43:29;6.22;;;3.70;;
77220;SDS011;66217;50.004;8.266;2023-08-31T03:45:55;5.97;;;3.70;;
77220;SDS011;66217;50.004;8.266;2023-08-31T03:48:21;6.45;;;3.63;;
77220;SDS011;66217;50.004;8.266;2023-08-31T03:50:54;8.90;;;3.97;;
77220;SDS011;66217;50.004;8.266;2023-08-31T03:53:21;7.97;;;3.72;;
77220;SDS011;66217;50.004;8.266;2023-08-31T03:55:47;7.38;;;4.10;;
77220;SDS011;66217;50.004;8.266;2023-08-31T03:58:14;6.97;;;3.63;;
77220;SDS011;66217;50.004;8.266;2023-08-31T04:00:41;7.55;;;3.85;;
77220;SDS011;66217;50.004;8.266;2023-08-31T04:03:08;5.72;;;3.47;;
77220;SDS011;66217;50.004;8.266;2023-08-31T04:05:35;7.25;;;3.83;;
77220;SDS011;66217;50.004;8.266;2023-08-31T04:08:02;9.77;;;3.95;;
77220;SDS011;66217;50.004;8.266;2023-08-31T04:10:27;6.88;;;3.65;;
77220;SDS011;66217;50.004;8.266;2023-08-31T04:12:54;11.23;;;4.32;;
77220;SDS011;66217;50.004;8.266;2023-08-31T04:15:20;9.60;;;4.30;;
77220;SDS011;66217;50.004;8.266;2023-08-31T04:17:46;6.45;;;3.60;;
77220;SDS011;66217;50.004;8.266;2023-08-31T04:20:11;7.30;;;3.67;;
77220;SDS011;66217;50.004;8.266;2023-08-31T04:22:37;6.13;;;3.90;;
77220;SDS011;66217;50.004;8.266;2023-08-31T04:25:03;7.13;;;3.75;;
77220;SDS011;66217;50.004;8.266;2023-08-31T04:27:29;5.90;;;3.97;;
77220;SDS011;66217;50.004;8.266;2023-08-31T04:29:56;8.95;;;3.70;;
77220;SDS011;66217;50.004;8.266;2023-08-31T04:32:25;10.20;;;4.05;;
77220;SDS011;66217;50.004;8.266;2023-08-31T04:34:51;6.05;;;4.28;;
77220;SDS011;66217;50.004;8.266;2023-08-31T04:37:17;5.72;;;3.88;;
77220;SDS011;66217;50.004;8.266;2023-08-31T04:39:42;9.23;;;3.80;;
77220;SDS011;66217;50.004;8.266;2023-08-31T04:42:07;9.48;;;3.95;;
77220;SDS011;66217;50.004;8.266;2023-08-31T04:44:33;5.97;;;3.95;;
77220;SDS011;66217;50.004;8.266;2023-08-31T04:46:59;7.72;;;3.80;;
77220;SDS011;66217;50.004;8.266;2023-08-31T04:49:25;8.43;;;3.85;;
77220;SDS011;66217;50.004;8.266;2023-08-31T04:51:51;6.03;;;4.20;;
77220;SDS011;66217;50.004;8.266;2023-08-31T04:54:17;9.85;;;4.18;;
77220;SDS011;66217;50.004;8.266;2023-08-31T04:56:44;6.10;;;3.80;;
77220;SDS011;66217;50.004;8.266;2023-08-31T04:59:09;11.80;;;3.95;;
77220;SDS011;66217;50.004;8.266;2023-08-31T05:01:34;9.57;;;4.00;;
77220;SDS011;66217;50.004;8.266;2023-08-31T05:04:00;5.57;;;3.53;;
77220;SDS011;66217;50.004;8.266;2023-08-31T05:06:25;6.85;;;2.97;;
77220;SDS011;66217;50.004;8.266;2023-08-31T05:08:53;7.13;;;3.50;;
77220;SDS011;66217;50.004;8.266;2023-08-31T05:11:19;7.07;;;3.05;;
77220;SDS011;66217;50.004;8.266;2023-08-31T05:13:44;9.15;;;3.33;;
77220;SDS011;66217;50.004;8.266;2023-08-31T05:16:10;7.43;;;3.63;;
77220;SDS011;66217;50.004;8.266;2023-08-31T05:18:36;6.20;;;3.70;;
77220;SDS011;66217;50.004;8.266;2023-08-31T05:21:03;7.35;;;3.17;;
77220;SDS011;66217;50.004;8.266;2023-08-31T05:23:29;7.22;;;4.00;;
77220;SDS011;66217;50.004;8.266;2023-08-31T05:25:55;6.13;;;3.30;;
77220;SDS011;66217;50.004;8.266;2023-08-31T05:28:22;8.98;;;3.70;;
77220;SDS011;66217;50.004;8.266;2023-08-31T05:30:50;6.68;;;3.22;;
77220;SDS011;66217;50.004;8.266;2023-08-31T05:33:22;5.57;;;3.08;;
77220;SDS011;66217;50.004;8.266;2023-08-31T05:35:48;5.25;;;2.92;;
77220;SDS011;66217;50.004;8.266;2023-08-31T05:38:14;9.38;;;3.20;;
77220;SDS011;66217;50.004;8.266;2023-08-31T05:40:39;6.35;;;3.45;;
77220;SDS011;66217;50.004;8.266;2023-08-31T05:43:10;7.55;;;2.72;;
77220;SDS011;66217;50.004;8.266;2023-08-31T05:45:36;6.50;;;3.13;;
77220;SDS011;66217;50.004;8.266;2023-08-31T05:48:01;7.70;;;3.72;;
77220;SDS011;66217;50.004;8.266;2023-08-31T05:50:27;6.65;;;2.72;;
77220;SDS011;66217;50.004;8.266;2023-08-31T05:52:53;8.88;;;3.17;;
77220;SDS011;66217;50.004;8.266;2023-08-31T05:55:19;8.55;;;2.92;;
77220;SDS011;66217;50.004;8.266;2023-08-31T05:57:45;7.20;;;2.83;;
77220;SDS011;66217;50.004;8.266;2023-08-31T06:00:10;5.40;;;2.90;;
77220;SDS011;66217;50.004;8.266;2023-08-31T06:02:40;6.28;;;3.10;;
77220;SDS011;66217;50.004;8.266;2023-08-31T06:05:06;8.48;;;2.72;;
77220;SDS011;66217;50.004;8.266;2023-08-31T06:07:32;6.15;;;3.20;;
77220;SDS011;66217;50.004;8.266;2023-08-31T06:09:58;6.35;;;2.90;;
77220;SDS011;66217;50.004;8.266;2023-08-31T06:12:23;9.35;;;3.00;;
77220;SDS011;66217;50.004;8.266;2023-08-31T06:14:49;6.07;;;2.60;;
77220;SDS011;66217;50.004;8.266;2023-08-31T06:17:14;8.27;;;3.45;;
77220;SDS011;66217;50.004;8.266;2023-08-31T06:19:40;7.35;;;2.92;;
77220;SDS011;66217;50.004;8.266;2023-08-31T06:22:06;4.57;;;2.63;;
77220;SDS011;66217;50.004;8.266;2023-08-31T06:24:32;4.70;;;2.70;;
77220;SDS011;66217;50.004;8.266;2023-08-31T06:26:58;9.65;;;2.72;;
77220;SDS011;66217;50.004;8.266;2023-08-31T06:29:23;5.57;;;2.58;;
77220;SDS011;66217;50.004;8.266;2023-08-31T06:31:49;6.65;;;2.47;;
77220;SDS011;66217;50.004;8.266;2023-08-31T06:34:14;8.88;;;3.22;;
77220;SDS011;66217;50.004;8.266;2023-08-31T06:36:40;4.97;;;2.40;;
77220;SDS011;66217;50.004;8.266;2023-08-31T06:39:06;5.55;;;2.50;;
77220;SDS011;66217;50.004;8.266;2023-08-31T06:41:31;11.02;;;2.50;;
77220;SDS011;66217;50.004;8.266;2023-08-31T06:43:57;6.60;;;2.13;;
77220;SDS011;66217;50.004;8.266;2023-08-31T06:46:22;4.07;;;2.17;;
77220;SDS011;66217;50.004;8.266;2023-08-31T06:48:48;7.13;;;2.72;;
77220;SDS011;66217;50.004;8.266;2023-08-31T06:51:14;5.38;;;2.53;;
77220;SDS011;66217;50.004;8.266;2023-08-31T06:53:41;4.55;;;2.28;;
77220;SDS011;66217;50.004;8.266;2023-08-31T06:56:08;5.95;;;2.13;;
77220;SDS011;66217;50.004;8.266;2023-08-31T06:58:33;9.48;;;2.50;;
77220;SDS011;66217;50.004;8.266;2023-08-31T07:00:59;5.32;;;2.72;;
77220;SDS011;66217;50.004;8.266;2023-08-31T07:03:24;5.32;;;2.22;;
77220;SDS011;66217;50.004;8.266;2023-08-31T07:05:50;9.18;;;2.30;;
77220;SDS011;66217;50.004;8.266;2023-08-31T07:08:15;6.05;;;2.03;;
77220;SDS011;66217;50.004;8.266;2023-08-31T07:10:41;5.50;;;2.50;;
77220;SDS011;66217;50.004;8.266;2023-08-31T07:13:06;7.25;;;2.28;;
77220;SDS011;66217;50.004;8.266;2023-08-31T07:15:32;5.68;;;2.22;;
77220;SDS011;66217;50.004;8.266;2023-08-31T07:17:57;5.25;;;2.33;;
77220;SDS011;66217;50.004;8.266;2023-08-31T07:20:22;3.28;;;1.95;;
77220;SDS011;66217;50.004;8.266;2023-08-31T07:22:48;8.30;;;2.20;;
77220;SDS011;66217;50.004;8.266;2023-08-31T07:25:13;5.20;;;2.05;;
77220;SDS011;66217;50.004;8.266;2023-08-31T07:27:39;7.05;;;2.90;;
77220;SDS011;66217;50.004;8.266;2023-08-31T07:30:05;7.32;;;2.90;;
77220;SDS011;66217;50.004;8.266;2023-08-31T07:32:31;7.30;;;2.10;;
77220;SDS011;66217;50.004;8.266;2023-08-31T07:34:57;8.48;;;2.33;;
77220;SDS011;66217;50.004;8.266;2023-08-31T07:37:22;5.93;;;2.08;;
77220;SDS011;66217;50.004;8.266;2023-08-31T07:39:48;4.85;;;2.10;;
77220;SDS011;66217;50.004;8.266;2023-08-31T07:42:13;4.75;;;2.25;;
77220;SDS011;66217;50.004;8.266;2023-08-31T07:44:38;8.82;;;1.80;;
77220;SDS011;66217;50.004;8.266;2023-08-31T07:47:06;6.50;;;2.20;;
77220;SDS011;66217;50.004;8.266;2023-08-31T07:49:32;7.57;;;2.00;;
77220;SDS011;66217;50.004;8.266;2023-08-31T07:51:57;10.43;;;2.45;;
77220;SDS011;66217;50.004;8.266;2023-08-31T07:54:23;5.18;;;2.20;;
77220;SDS011;66217;50.004;8.266;2023-08-31T07:56:49;6.68;;;1.90;;
77220;SDS011;66217;50.004;8.266;2023-08-31T07:59:14;4.53;;;2.03;;
77220;SDS011;66217;50.004;8.266;2023-08-31T08:01:41;5.47;;;2.20;;
77220;SDS011;66217;50.004;8.266;2023-08-31T08:04:07;5.20;;;2.17;;
77220;SDS011;66217;50.004;8.266;2023-08-31T08:06:32;3.72;;;1.80;;
77220;SDS011;66217;50.004;8.266;2023-08-31T08:08:57;5.90;;;2.05;;
77220;SDS011;66217;50.004;8.266;2023-08-31T08:11:25;4.07;;;1.83;;
77220;SDS011;66217;50.004;8.266;2023-08-31T08:13:51;5.38;;;2.08;;
77220;SDS011;66217;50.004;8.266;2023-08-31T08:16:16;2.97;;;1.60;;
77220;SDS011;66217;50.004;8.266;2023-08-31T08:18:41;5.50;;;1.83;;
77220;SDS011;66217;50.004;8.266;2023-08-31T08:21:07;6.70;;;2.03;;
77220;SDS011;66217;50.004;8.266;2023-08-31T08:23:32;5.22;;;2.03;;
77220;SDS011;66217;50.004;8.266;2023-08-31T08:25:58;9.75;;;2.22;;
77220;SDS011;66217;50.004;8.266;2023-08-31T08:28:27;7.68;;;2.40;;
77220;SDS011;66217;50.004;8.266;2023-08-31T08:30:53;6.95;;;2.13;;
77220;SDS011;66217;50.004;8.266;2023-08-31T08:33:18;5.68;;;2.00;;
77220;SDS011;66217;50.004;8.266;2023-08-31T08:35:44;7.55;;;1.98;;
77220;SDS011;66217;50.004;8.266;2023-08-31T08:38:09;6.32;;;1.92;;
77220;SDS011;66217;50.004;8.266;2023-08-31T08:40:35;6.65;;;2.30;;
77220;SDS011;66217;50.004;8.266;2023-08-31T08:43:01;8.02;;;2.00;;
77220;SDS011;66217;50.004;8.266;2023-08-31T08:45:27;7.10;;;2.10;;
77220;SDS011;66217;50.004;8.266;2023-08-31T08:47:57;13.35;;;2.25;;
77220;SDS011;66217;50.004;8.266;2023-08-31T08:50:22;4.00;;;1.90;;
77220;SDS011;66217;50.004;8.266;2023-08-31T08:52:49;4.93;;;2.22;;
77220;SDS011;66217;50.004;8.266;2023-08-31T08:55:18;6.18;;;2.22;;
77220;SDS011;66217;50.004;8.266;2023-08-31T08:57:43;5.32;;;1.92;;
77220;SDS011;66217;50.004;8.266;2023-08-31T09:00:09;4.60;;;2.20;;
77220;SDS011;66217;50.004;8.266;2023-08-31T09:02:35;4.70;;;2.00;;
77220;SDS011;66217;50.004;8.266;2023-08-31T09:05:01;8.43;;;2.65;;
77220;SDS011;66217;50.004;8.266;2023-08-31T09:07:29;5.68;;;2.30;;
77220;SDS011;66217;50.004;8.266;2023-08-31T09:09:55;5.07;;;2.20;;
77220;SDS011;66217;50.004;8.266;2023-08-31T09:12:22;8.13;;;2.30;;
77220;SDS011;66217;50.004;8.266;2023-08-31T09:14:58;8.13;;;2.13;;
77220;SDS011;66217;50.004;8.266;2023-08-31T09:17:40;5.90;;;2.75;;
77220;SDS011;66217;50.004;8.266;2023-08-31T09:20:07;5.95;;;2.20;;
77220;SDS011;66217;50.004;8.266;2023-08-31T09:22:34;5.93;;;2.10;;
77220;SDS011;66217;50.004;8.266;2023-08-31T09:25:00;7.20;;;2.63;;
77220;SDS011;66217;50.004;8.266;2023-08-31T09:27:25;5.00;;;2.03;;
77220;SDS011;66217;50.004;8.266;2023-08-31T09:29:54;7.82;;;2.10;;
77220;SDS011;66217;50.004;8.266;2023-08-31T09:32:20;4.40;;;2.17;;
77220;SDS011;66217;50.004;8.266;2023-08-31T09:34:45;4.80;;;1.88;;
77220;SDS011;66217;50.004;8.266;2023-08-31T09:37:12;9.70;;;2.22;;
77220;SDS011;66217;50.004;8.266;2023-08-31T09:39:40;5.53;;;2.05;;
77220;SDS011;66217;50.004;8.266;2023-08-31T09:42:06;5.10;;;1.95;;
77220;SDS011;66217;50.004;8.266;2023-08-31T09:44:32;5.45;;;1.83;;
77220;SDS011;66217;50.004;8.266;2023-08-31T09:46:57;6.07;;;2.25;;
77220;SDS011;66217;50.004;8.266;2023-08-31T09:49:23;8.05;;;2.30;;
77220;SDS011;66217;50.004;8.266;2023-08-31T09:51:50;4.47;;;2.05;;
77220;SDS011;66217;50.004;8.266;2023-08-31T09:54:17;6.68;;;1.80;;
77220;SDS011;66217;50.004;8.266;2023-08-31T09:56:44;5.55;;;2.05;;
77220;SDS011;66217;50.004;8.266;2023-08-31T09:59:11;8.70;;;2.10;;
77220;SDS011;66217;50.004;8.266;2023-08-31T10:01:38;8.70;;;2.28;;
77220;SDS011;66217;50.004;8.266;2023-08-31T10:04:04;6.88;;;2.17;;
77220;SDS011;66217;50.004;8.266;2023-08-31T10:06:32;5.50;;;2.28;;
77220;SDS011;66217;50.004;8.266;2023-08-31T10:08:58;8.23;;;2.38;;
77220;SDS011;66217;50.004;8.266;2023-08-31T10:11:26;6.82;;;2.20;;
77220;SDS011;66217;50.004;8.266;2023-08-31T10:13:52;4.75;;;2.10;;
77220;SDS011;66217;50.004;8.266;2023-08-31T10:16:19;2.78;;;1.65;;
77220;SDS011;66217;50.004;8.266;2023-08-31T10:18:45;6.25;;;1.70;;
77220;SDS011;66217;50.004;8.266;2023-08-31T10:21:10;3.92;;;1.60;;
77220;SDS011;66217;50.004;8.266;2023-08-31T10:23:43;6.68;;;2.10;;
77220;SDS011;66217;50.004;8.266;2023-08-31T10:26:13;2.97;;;1.67;;
77220;SDS011;66217;50.004;8.266;2023-08-31T10:28:48;3.65;;;1.52;;
77220;SDS011;66217;50.004;8.266;2023-08-31T10:31:16;4.13;;;2.13;;
77220;SDS011;66217;50.004;8.266;2023-08-31T10:33:43;4.03;;;1.80;;
77220;SDS011;66217;50.004;8.266;2023-08-31T10:36:12;5.22;;;2.50;;
77220;SDS011;66217;50.004;8.266;2023-08-31T10:38:39;3.90;;;2.00;;
77220;SDS011;66217;50.004;8.266;2023-08-31T10:46:32;4.25;;;2.10;;
77220;SDS011;66217;50.004;8.266;2023-08-31T10:51:36;5.60;;;2.15;;
77220;SDS011;66217;50.004;8.266;2023-08-31T10:59:21;5.78;;;2.70;;
77220;SDS011;66217;50.004;8.266;2023-08-31T11:01:54;3.65;;;2.30;;
77220;SDS011;66217;50.004;8.266;2023-08-31T11:04:24;3.42;;;1.90;;
77220;SDS011;66217;50.004;8.266;2023-08-31T11:09:38;4.18;;;1.83;;
77220;SDS011;66217;50.004;8.266;2023-08-31T11:12:04;5.53;;;1.83;;
77220;SDS011;66217;50.004;8.266;2023-08-31T11:14:30;3.38;;;1.88;;
77220;SDS011;66217;50.004;8.266;2023-08-31T11:16:55;5.60;;;2.13;;
77220;SDS011;66217;50.004;8.266;2023-08-31T11:19:21;3.53;;;1.90;;
77220;SDS011;66217;50.004;8.266;2023-08-31T11:21:46;5.20;;;1.80;;
77220;SDS011;66217;50.004;8.266;2023-08-31T11:24:12;3.15;;;1.60;;
77220;SDS011;66217;50.004;8.266;2023-08-31T11:26:37;8.75;;;2.10;;
77220;SDS011;66217;50.004;8.266;2023-08-31T11:29:06;2.45;;;1.73;;
77220;SDS011;66217;50.004;8.266;2023-08-31T11:31:32;4.45;;;1.70;;
77220;SDS011;66217;50.004;8.266;2023-08-31T11:33:58;4.03;;;1.70;;
77220;SDS011;66217;50.004;8.266;2023-08-31T11:36:23;5.82;;;1.65;;
77220;SDS011;66217;50.004;8.266;2023-08-31T11:38:49;6.10;;;1.75;;
77220;SDS011;66217;50.004;8.266;2023-08-31T11:41:16;4.40;;;2.03;;
77220;SDS011;66217;50.004;8.266;2023-08-31T11:43:41;4.07;;;1.80;;
77220;SDS011;66217;50.004;8.266;2023-08-31T11:46:07;4.95;;;1.90;;
77220;SDS011;66217;50.004;8.266;2023-08-31T11:48:33;3.67;;;1.80;;
77220;SDS011;66217;50.004;8.266;2023-08-31T11:50:59;4.40;;;2.25;;
77220;SDS011;66217;50.004;8.266;2023-08-31T11:53:26;5.75;;;2.00;;
77220;SDS011;66217;50.004;8.266;2023-08-31T11:55:52;3.85;;;1.90;;
77220;SDS011;66217;50.004;8.266;2023-08-31T11:58:19;4.05;;;2.03;;
77220;SDS011;66217;50.004;8.266;2023-08-31T12:00:45;3.33;;;1.92;;
77220;SDS011;66217;50.004;8.266;2023-08-31T12:03:12;4.63;;;2.05;;
77220;SDS011;66217;50.004;8.266;2023-08-31T12:05:44;4.63;;;2.10;;
77220;SDS011;66217;50.004;8.266;2023-08-31T12:08:10;7.03;;;2.15;;
77220;SDS011;66217;50.004;8.266;2023-08-31T12:10:35;6.03;;;2.90;;
77220;SDS011;66217;50.004;8.266;2023-08-31T12:13:09;5.22;;;2.40;;
77220;SDS011;66217;50.004;8.266;2023-08-31T12:15:40;4.75;;;2.10;;
77220;SDS011;66217;50.004;8.266;2023-08-31T12:18:06;7.03;;;2.20;;
77220;SDS011;66217;50.004;8.266;2023-08-31T12:20:42;3.10;;;1.83;;
77220;SDS011;66217;50.004;8.266;2023-08-31T12:23:17;5.93;;;2.40;;
77220;SDS011;66217;50.004;8.266;2023-08-31T12:25:47;5.22;;;2.00;;
77220;SDS011;66217;50.004;8.266;2023-08-31T12:28:18;4.82;;;2.17;;
77220;SDS011;66217;50.004;8.266;2023-08-31T12:30:48;3.50;;;1.88;;
77220;SDS011;66217;50.004;8.266;2023-08-31T12:33:15;4.15;;;2.20;;
77220;SDS011;66217;50.004;8.266;2023-08-31T12:35:40;4.47;;;2.20;;
77220;SDS011;66217;50.004;8.266;2023-08-31T12:38:06;3.92;;;2.08;;
77220;SDS011;66217;50.004;8.266;2023-08-31T12:40:32;3.50;;;1.92;;
77220;SDS011;66217;50.004;8.266;2023-08-31T12:42:57;7.22;;;2.45;;
77220;SDS011;66217;50.004;8.266;2023-08-31T12:45:23;3.90;;;2.20;;
77220;SDS011;66217;50.004;8.266;2023-08-31T12:47:48;3.80;;;2.10;;
77220;SDS011;66217;50.004;8.266;2023-08-31T12:50:14;5.93;;;1.90;;
77220;SDS011;66217;50.004;8.266;2023-08-31T12:52:39;5.15;;;2.13;;
77220;SDS011;66217;50.004;8.266;2023-08-31T12:57:38;5.57;;;2.03;;
77220;SDS011;66217;50.004;8.266;2023-08-31T13:00:03;4.13;;;2.00;;
77220;SDS011;66217;50.004;8.266;2023-08-31T13:02:34;5.10;;;2.17;;
77220;SDS011;66217;50.004;8.266;2023-08-31T13:04:59;6.55;;;2.15;;
77220;SDS011;66217;50.004;8.266;2023-08-31T13:07:25;3.85;;;1.80;;
77220;SDS011;66217;50.004;8.266;2023-08-31T13:09:50;4.22;;;2.10;;
77220;SDS011;66217;50.004;8.266;2023-08-31T13:12:16;4.30;;;2.00;;
77220;SDS011;66217;50.004;8.266;2023-08-31T13:14:43;3.97;;;1.90;;
77220;SDS011;66217;50.004;8.266;2023-08-31T13:17:09;8.13;;;2.15;;
77220;SDS011;66217;50.004;8.266;2023-08-31T13:19:34;4.47;;;1.73;;
77220;SDS011;66217;50.004;8.266;2023-08-31T13:22:00;4.45;;;1.98;;
77220;SDS011;66217;50.004;8.266;2023-08-31T13:24:25;3.40;;;1.83;;
77220;SDS011;66217;50.004;8.266;2023-08-31T13:26:51;4.93;;;1.90;;
77220;SDS011;66217;50.004;8.266;2023-08-31T13:29:16;5.65;;;2.05;;
77220;SDS011;66217;50.004;8.266;2023-08-31T13:31:42;5.10;;;2.15;;
77220;SDS011;66217;50.004;8.266;2023-08-31T13:34:07;5.35;;;2.00;;
77220;SDS011;66217;50.004;8.266;2023-08-31T13:36:33;7.90;;;2.10;;
77220;SDS011;66217;50.004;8.266;2023-08-31T13:38:59;3.55;;;1.90;;
77220;SDS011;66217;50.004;8.266;2023-08-31T13:41:24;4.63;;;2.00;;
77220;SDS011;66217;50.004;8.266;2023-08-31T13:43:50;6.95;;;2.13;;
77220;SDS011;66217;50.004;8.266;2023-08-31T13:46:16;4.65;;;2.30;;
77220;SDS011;66217;50.004;8.266;2023-08-31T13:48:42;6.63;;;2.00;;
77220;SDS011;66217;50.004;8.266;2023-08-31T13:51:08;4.65;;;1.90;;
77220;SDS011;66217;50.004;8.266;2023-08-31T13:53:33;10.38;;;2.47;;
77220;SDS011;66217;50.004;8.266;2023-08-31T13:55:59;10.32;;;2.25;;
77220;SDS011;66217;50.004;8.266;2023-08-31T13:58:24;4.85;;;1.90;;
77220;SDS011;66217;50.004;8.266;2023-08-31T14:00:50;7.18;;;2.40;;
77220;SDS011;66217;50.004;8.266;2023-08-31T14:03:15;5.35;;;2.15;;
77220;SDS011;66217;50.004;8.266;2023-08-31T14:05:42;6.53;;;2.08;;
77220;SDS011;66217;50.004;8.266;2023-08-31T14:08:07;6.38;;;2.35;;
77220;SDS011;66217;50.004;8.266;2023-08-31T14:10:33;7.38;;;2.15;;
77220;SDS011;66217;50.004;8.266;2023-08-31T14:12:58;4.63;;;2.10;;
77220;SDS011;66217;50.004;8.266;2023-08-31T14:15:24;4.22;;;2.15;;
77220;SDS011;66217;50.004;8.266;2023-08-31T14:17:50;7.05;;;2.50;;
77220;SDS011;66217;50.004;8.266;2023-08-31T14:20:18;6.03;;;2.03;;
77220;SDS011;66217;50.004;8.266;2023-08-31T14:22:44;6.78;;;2.10;;
77220;SDS011;66217;50.004;8.266;2023-08-31T14:25:10;5.63;;;2.08;;
77220;SDS011;66217;50.004;8.266;2023-08-31T14:27:36;7.10;;;2.10;;
77220;SDS011;66217;50.004;8.266;2023-08-31T14:30:02;4.13;;;1.88;;
77220;SDS011;66217;50.004;8.266;2023-08-31T14:32:28;7.97;;;2.20;;
77220;SDS011;66217;50.004;8.266;2023-08-31T14:34:54;5.45;;;2.15;;
77220;SDS011;66217;50.004;8.266;2023-08-31T14:37:20;8.55;;;2.47;;
77220;SDS011;66217;50.004;8.266;2023-08-31T14:39:45;6.25;;;2.20;;
77220;SDS011;66217;50.004;8.266;2023-08-31T14:42:10;7.00;;;2.38;;
77220;SDS011;66217;50.004;8.266;2023-08-31T14:44:36;5.82;;;2.25;;
77220;SDS011;66217;50.004;8.266;2023-08-31T14:47:02;11.00;;;2.50;;
77220;SDS011;66217;50.004;8.266;2023-08-31T14:49:28;5.68;;;2.40;;
77220;SDS011;66217;50.004;8.266;2023-08-31T14:51:57;6.63;;;3.20;;
77220;SDS011;66217;50.004;8.266;2023-08-31T14:54:22;7.38;;;3.00;;
77220;SDS011;66217;50.004;8.266;2023-08-31T14:56:48;9.10;;;2.78;;
77220;SDS011;66217;50.004;8.266;2023-08-31T14:59:14;5.85;;;2.33;;
77220;SDS011;66217;50.004;8.266;2023-08-31T15:01:39;9.90;;;3.08;;
77220;SDS011;66217;50.004;8.266;2023-08-31T15:04:05;16.20;;;3.95;;
77220;SDS011;66217;50.004;8.266;2023-08-31T15:06:30;7.88;;;2.20;;
77220;SDS011;66217;50.004;8.266;2023-08-31T15:08:58;8.50;;;2.58;;
77220;SDS011;66217;50.004;8.266;2023-08-31T15:11:26;7.28;;;2.65;;
77220;SDS011;66217;50.004;8.266;2023-08-31T15:13:52;6.55;;;2.40;;
77220;SDS011;66217;50.004;8.266;2023-08-31T15:16:17;8.90;;;2.55;;